createdAt,value
2022-11-22T00:01:01.504Z,46.20
2022-11-22T00:02:07.332Z,46.30
2022-11-22T00:03:10.101Z,46.30
2022-11-22T00:04:12.494Z,46.20
2022-11-22T00:05:15.035Z,46.10
2022-11-22T00:06:17.719Z,46.40
2022-11-22T00:07:23.157Z,46.40
2022-11-22T00:08:25.846Z,46.50
2022-11-22T00:09:28.671Z,46.50
2022-11-22T00:10:32.176Z,46.40
2022-11-22T00:11:34.534Z,46.30
2022-11-22T00:12:37.233Z,46.40
2022-11-22T00:13:40.014Z,46.50
2022-11-22T00:14:42.683Z,46.50
2022-11-22T00:15:45.776Z,46.60
2022-11-22T00:16:48.589Z,46.90
2022-11-22T00:17:51.382Z,47.40
2022-11-22T00:18:53.743Z,46.80
2022-11-22T00:19:56.167Z,46.70
2022-11-22T00:21:04.945Z,46.60
2022-11-22T00:22:08.808Z,47.10
2022-11-22T00:23:11.304Z,46.70
2022-11-22T00:24:14.140Z,46.60
2022-11-22T00:25:16.537Z,46.30
2022-11-22T00:26:19.052Z,46.30
2022-11-22T00:27:21.663Z,46.50
2022-11-22T00:28:24.345Z,46.20
2022-11-22T00:29:26.956Z,46.40
2022-11-22T00:30:29.475Z,46.40
2022-11-22T00:31:32.363Z,46.40
2022-11-22T00:32:35.021Z,46.40
2022-11-22T00:33:37.389Z,46.50
2022-11-22T00:34:39.868Z,46.70
2022-11-22T00:35:42.228Z,46.40
2022-11-22T00:36:44.798Z,46.60
2022-11-22T00:37:47.246Z,46.70
2022-11-22T00:38:52.487Z,46.60
2022-11-22T00:39:54.913Z,46.70
2022-11-22T00:40:57.296Z,46.80
2022-11-22T00:41:59.921Z,46.70
2022-11-22T00:43:02.446Z,46.50
2022-11-22T00:44:05.090Z,46.20
2022-11-22T00:45:08.190Z,46.20
2022-11-22T00:46:10.765Z,46.40
2022-11-22T00:47:13.721Z,46.10
2022-11-22T00:48:16.116Z,45.90
2022-11-22T00:49:18.433Z,46.10
2022-11-22T00:50:20.762Z,46.30
2022-11-22T00:51:23.124Z,46.60
2022-11-22T00:52:25.688Z,46.40
2022-11-22T00:53:28.164Z,46.40
2022-11-22T00:54:30.555Z,46.30
2022-11-22T00:55:33.093Z,45.90
2022-11-22T00:56:35.831Z,45.90
2022-11-22T00:57:38.568Z,45.90
2022-11-22T00:58:41.298Z,45.90
2022-11-22T00:59:43.702Z,45.90
2022-11-22T01:00:46.315Z,45.90
2022-11-22T01:01:49.246Z,46.00
2022-11-22T01:02:51.599Z,46.00
2022-11-22T01:03:54.200Z,45.90
2022-11-22T01:04:56.571Z,46.00
2022-11-22T01:05:58.911Z,45.90
2022-11-22T01:07:01.887Z,46.00
2022-11-22T01:08:04.530Z,46.00
2022-11-22T01:09:06.842Z,46.00
2022-11-22T01:10:09.573Z,46.10
2022-11-22T01:11:12.271Z,46.00
2022-11-22T01:12:14.715Z,46.00
2022-11-22T01:13:17.052Z,46.00
2022-11-22T01:14:19.879Z,46.00
2022-11-22T01:15:22.781Z,45.90
2022-11-22T01:16:25.023Z,45.90
2022-11-22T01:17:27.898Z,46.10
2022-11-22T01:18:30.832Z,46.10
2022-11-22T01:19:33.267Z,46.20
2022-11-22T01:20:35.613Z,46.10
2022-11-22T01:21:38.283Z,46.00
2022-11-22T01:22:40.611Z,46.00
2022-11-22T01:23:43.046Z,46.10
2022-11-22T01:24:45.398Z,46.10
2022-11-22T01:25:47.765Z,46.10
2022-11-22T01:26:50.113Z,46.40
2022-11-22T01:27:52.403Z,46.40
2022-11-22T01:28:54.729Z,46.40
2022-11-22T01:29:57.055Z,46.50
2022-11-22T01:30:59.324Z,46.50
2022-11-22T01:32:01.789Z,46.40
2022-11-22T01:33:05.126Z,46.30
2022-11-22T01:34:07.454Z,46.10
2022-11-22T01:35:10.753Z,46.10
2022-11-22T01:36:13.234Z,46.10
2022-11-22T01:37:15.575Z,46.20
2022-11-22T01:38:17.859Z,46.10
2022-11-22T01:39:20.468Z,46.30
2022-11-22T01:40:22.778Z,46.20
2022-11-22T01:41:25.050Z,46.40
2022-11-22T01:42:48.538Z,46.20
2022-11-22T01:43:50.966Z,46.00
2022-11-22T01:44:53.818Z,46.00
2022-11-22T01:45:57.947Z,46.40
2022-11-22T01:47:12.582Z,46.30
2022-11-22T01:48:59.706Z,46.30
2022-11-22T01:50:04.743Z,46.30
2022-11-22T01:51:15.953Z,46.30
2022-11-22T01:52:20.571Z,46.40
2022-11-22T01:53:30.811Z,46.40
2022-11-22T01:54:37.333Z,46.40
2022-11-22T01:55:40.570Z,46.50
2022-11-22T01:56:46.792Z,46.40
2022-11-22T01:57:49.233Z,46.40
2022-11-22T01:58:58.281Z,46.70
2022-11-22T02:00:13.297Z,46.60
2022-11-22T02:01:20.507Z,46.60
2022-11-22T02:02:22.884Z,46.70
2022-11-22T02:03:27.381Z,46.70
2022-11-22T02:04:32.255Z,46.90
2022-11-22T02:05:35.366Z,47.00
2022-11-22T02:07:04.758Z,46.90
2022-11-22T02:08:37.764Z,47.00
2022-11-22T02:09:42.262Z,47.20
2022-11-22T02:10:49.287Z,46.70
2022-11-22T02:11:55.265Z,46.90
2022-11-22T02:12:59.584Z,47.40
2022-11-22T02:14:03.901Z,47.10
2022-11-22T02:15:08.186Z,46.80
2022-11-22T02:16:11.574Z,46.70
2022-11-22T02:17:14.069Z,47.40
2022-11-22T02:18:16.486Z,46.90
2022-11-22T02:19:43.158Z,47.00
2022-11-22T02:20:46.287Z,47.00
2022-11-22T02:21:55.474Z,46.90
2022-11-22T02:23:13.869Z,46.80
2022-11-22T02:24:44.916Z,47.00
2022-11-22T02:25:55.088Z,47.20
2022-11-22T02:26:58.813Z,47.10
2022-11-22T02:28:02.183Z,47.30
2022-11-22T02:29:07.824Z,47.20
2022-11-22T02:30:10.779Z,47.20
2022-11-22T02:31:39.357Z,47.20
2022-11-22T02:32:42.035Z,46.90
2022-11-22T02:33:44.744Z,47.00
2022-11-22T02:34:49.336Z,46.90
2022-11-22T02:35:52.136Z,46.80
2022-11-22T02:36:54.988Z,46.90
2022-11-22T02:38:02.715Z,46.90
2022-11-22T02:39:07.177Z,47.20
2022-11-22T02:40:14.926Z,47.10
2022-11-22T02:41:17.970Z,46.90
2022-11-22T02:42:20.571Z,47.00
2022-11-22T02:43:29.808Z,46.70
2022-11-22T02:44:32.277Z,46.70
2022-11-22T02:45:35.185Z,47.40
2022-11-22T02:46:50.247Z,46.70
2022-11-22T02:47:52.572Z,46.70
2022-11-22T02:48:55.397Z,46.70
2022-11-22T02:49:58.041Z,46.50
2022-11-22T02:51:01.365Z,47.10
2022-11-22T02:52:04.083Z,47.10
2022-11-22T02:53:08.032Z,46.90
2022-11-22T02:54:10.569Z,46.90
2022-11-22T02:55:13.127Z,46.60
2022-11-22T02:56:16.451Z,46.70
2022-11-22T02:57:19.028Z,46.70
2022-11-22T02:58:21.741Z,46.80
2022-11-22T02:59:24.266Z,46.50
2022-11-22T03:00:27.761Z,46.50
2022-11-22T03:01:30.600Z,46.60
2022-11-22T03:02:33.193Z,46.70
2022-11-22T03:03:35.721Z,46.90
2022-11-22T03:04:38.717Z,46.60
2022-11-22T03:05:41.317Z,46.50
2022-11-22T03:06:43.784Z,46.60
2022-11-22T03:07:46.526Z,46.30
2022-11-22T03:08:54.670Z,47.00
2022-11-22T03:09:58.846Z,46.20
2022-11-22T03:11:01.308Z,46.50
2022-11-22T03:12:04.255Z,46.70
2022-11-22T03:13:06.805Z,46.90
2022-11-22T03:14:09.434Z,46.50
2022-11-22T03:15:12.039Z,46.10
2022-11-22T03:16:14.556Z,46.30
2022-11-22T03:17:17.180Z,46.40
2022-11-22T03:18:19.713Z,46.30
2022-11-22T03:19:22.903Z,46.30
2022-11-22T03:20:25.727Z,46.10
2022-11-22T03:21:28.131Z,46.30
2022-11-22T03:22:30.876Z,46.10
2022-11-22T03:23:33.858Z,46.30
2022-11-22T03:24:36.197Z,46.30
2022-11-22T03:25:39.736Z,46.40
2022-11-22T03:26:47.074Z,46.10
2022-11-22T03:27:49.824Z,46.00
2022-11-22T03:28:52.539Z,46.30
2022-11-22T03:29:55.126Z,45.90
2022-11-22T03:30:58.014Z,46.20
2022-11-22T03:32:00.573Z,45.80
2022-11-22T03:33:03.073Z,45.70
2022-11-22T03:34:06.617Z,45.90
2022-11-22T03:35:09.821Z,46.00
2022-11-22T03:36:12.200Z,46.20
2022-11-22T03:37:14.825Z,46.20
2022-11-22T03:38:17.377Z,46.00
2022-11-22T03:39:19.858Z,45.90
2022-11-22T03:40:22.534Z,46.00
2022-11-22T03:41:27.878Z,46.20
2022-11-22T03:42:30.611Z,46.10
2022-11-22T03:43:33.093Z,46.30
2022-11-22T03:44:35.390Z,46.10
2022-11-22T03:45:37.914Z,45.80
2022-11-22T03:46:40.476Z,46.00
2022-11-22T03:47:42.889Z,45.70
2022-11-22T03:48:45.976Z,45.90
2022-11-22T03:49:48.833Z,45.80
2022-11-22T03:50:51.491Z,45.70
2022-11-22T03:51:53.802Z,45.80
2022-11-22T03:52:56.079Z,45.60
2022-11-22T03:53:58.596Z,45.50
2022-11-22T03:55:01.294Z,45.60
2022-11-22T03:56:05.093Z,45.90
2022-11-22T03:57:07.637Z,45.70
2022-11-22T03:58:10.115Z,46.50
2022-11-22T03:59:12.788Z,45.80
2022-11-22T04:00:15.596Z,46.10
2022-11-22T04:01:19.361Z,46.00
2022-11-22T04:02:21.904Z,46.50
2022-11-22T04:03:24.797Z,46.40
2022-11-22T04:04:27.122Z,46.80
2022-11-22T04:05:29.450Z,46.90
2022-11-22T04:06:31.729Z,46.50
2022-11-22T04:07:34.024Z,46.50
2022-11-22T04:08:36.323Z,46.30
2022-11-22T04:09:38.620Z,46.50
2022-11-22T04:10:40.967Z,46.70
2022-11-22T04:11:43.218Z,46.30
2022-11-22T04:12:45.501Z,45.80
2022-11-22T04:14:06.594Z,45.50
2022-11-22T04:15:09.453Z,45.70
2022-11-22T04:16:11.819Z,45.30
2022-11-22T04:17:34.820Z,45.10
2022-11-22T04:18:37.155Z,45.10
2022-11-22T04:19:59.446Z,45.00
2022-11-22T04:21:20.581Z,45.00
2022-11-22T04:22:23.016Z,45.30
2022-11-22T04:23:32.261Z,45.60
2022-11-22T04:24:54.945Z,45.80
2022-11-22T04:25:57.279Z,45.50
2022-11-22T04:26:59.693Z,46.00
2022-11-22T04:28:02.995Z,45.60
2022-11-22T04:29:09.994Z,45.60
2022-11-22T04:30:18.922Z,45.60
2022-11-22T04:31:41.348Z,45.70
2022-11-22T04:32:46.663Z,46.00
2022-11-22T04:33:48.941Z,46.60
2022-11-22T04:34:51.209Z,45.90
2022-11-22T04:35:54.244Z,45.60
2022-11-22T04:36:56.572Z,45.70
2022-11-22T04:37:58.855Z,45.30
2022-11-22T04:39:01.155Z,45.30
2022-11-22T04:40:04.274Z,48.60
2022-11-22T04:41:06.546Z,48.60
2022-11-22T04:42:28.343Z,48.70
2022-11-22T04:43:49.616Z,49.00
2022-11-22T04:44:51.984Z,49.30
2022-11-22T04:45:54.420Z,49.30
2022-11-22T04:46:56.707Z,49.00
2022-11-22T04:47:59.067Z,48.90
2022-11-22T04:49:01.386Z,49.20
2022-11-22T04:50:27.109Z,48.90
2022-11-22T04:51:48.027Z,48.70
2022-11-22T04:52:55.576Z,48.70
2022-11-22T04:53:58.027Z,49.80
2022-11-22T04:55:00.350Z,49.20
2022-11-22T04:56:02.798Z,49.20
2022-11-22T04:57:05.319Z,49.40
2022-11-22T04:58:07.954Z,48.90
2022-11-22T04:59:10.302Z,49.30
2022-11-22T05:00:12.742Z,49.30
2022-11-22T05:01:15.114Z,49.20
2022-11-22T05:02:17.644Z,49.00
2022-11-22T05:03:20.275Z,49.20
2022-11-22T05:04:22.629Z,49.00
2022-11-22T05:05:26.147Z,47.30
2022-11-22T05:06:28.440Z,46.60
2022-11-22T05:07:30.803Z,44.70
2022-11-22T05:08:33.413Z,43.00
2022-11-22T05:09:35.829Z,43.20
2022-11-22T05:10:56.547Z,44.20
2022-11-22T05:11:59.150Z,46.20
2022-11-22T05:13:01.688Z,47.70
2022-11-22T05:14:04.292Z,48.10
2022-11-22T05:15:07.017Z,49.10
2022-11-22T05:16:12.229Z,49.10
2022-11-22T05:17:14.579Z,49.40
2022-11-22T05:18:21.208Z,49.40
2022-11-22T05:19:23.557Z,49.50
2022-11-22T05:20:25.923Z,49.30
2022-11-22T05:21:29.619Z,49.60
2022-11-22T05:22:50.718Z,49.40
2022-11-22T05:23:56.155Z,49.50
2022-11-22T05:24:58.608Z,49.10
2022-11-22T05:26:01.167Z,48.60
2022-11-22T05:27:03.522Z,48.20
2022-11-22T05:28:05.875Z,48.00
2022-11-22T05:29:10.182Z,47.50
2022-11-22T05:30:12.746Z,48.20
2022-11-22T05:31:18.436Z,48.20
2022-11-22T05:32:20.861Z,48.20
2022-11-22T05:33:23.507Z,49.00
2022-11-22T05:34:25.858Z,48.80
2022-11-22T05:35:28.573Z,49.10
2022-11-22T05:36:33.379Z,49.10
2022-11-22T05:37:35.743Z,49.20
2022-11-22T05:38:38.754Z,49.10
2022-11-22T05:39:41.023Z,49.00
2022-11-22T05:40:43.312Z,47.90
2022-11-22T05:41:55.894Z,48.40
2022-11-22T05:43:01.800Z,47.90
2022-11-22T05:44:04.214Z,48.70
2022-11-22T05:45:07.036Z,49.00
2022-11-22T05:46:18.379Z,48.90
2022-11-22T05:47:24.773Z,48.90
2022-11-22T05:48:27.056Z,46.70
2022-11-22T05:49:29.562Z,45.30
2022-11-22T05:50:32.196Z,45.30
2022-11-22T05:51:35.257Z,45.40
2022-11-22T05:52:37.720Z,45.80
2022-11-22T05:53:40.637Z,47.70
2022-11-22T05:54:42.925Z,48.40
2022-11-22T05:55:45.357Z,49.00
2022-11-22T05:56:48.623Z,49.10
2022-11-22T05:57:50.965Z,49.50
2022-11-22T05:58:53.530Z,49.40
2022-11-22T05:59:55.802Z,49.40
2022-11-22T06:01:09.618Z,49.60
2022-11-22T06:02:11.948Z,49.50
2022-11-22T06:03:14.385Z,49.40
2022-11-22T06:04:16.776Z,49.30
2022-11-22T06:05:19.100Z,49.00
2022-11-22T06:06:21.629Z,49.10
2022-11-22T06:07:24.058Z,48.70
2022-11-22T06:08:29.794Z,48.70
2022-11-22T06:09:32.744Z,48.90
2022-11-22T06:10:37.317Z,48.80
2022-11-22T06:11:39.813Z,48.80
2022-11-22T06:12:42.099Z,48.80
2022-11-22T06:13:46.345Z,48.70
2022-11-22T06:14:48.852Z,49.00
2022-11-22T06:15:51.178Z,48.90
2022-11-22T06:16:53.493Z,48.90
2022-11-22T06:17:55.816Z,49.30
2022-11-22T06:18:58.141Z,48.90
2022-11-22T06:20:05.684Z,48.40
2022-11-22T06:21:12.623Z,48.70
2022-11-22T06:22:14.961Z,47.20
2022-11-22T06:23:17.271Z,46.30
2022-11-22T06:24:19.642Z,46.30
2022-11-22T06:25:22.038Z,46.30
2022-11-22T06:26:25.886Z,46.30
2022-11-22T06:27:28.120Z,46.60
2022-11-22T06:28:31.922Z,48.80
2022-11-22T06:29:34.271Z,49.70
2022-11-22T06:30:36.571Z,48.90
2022-11-22T06:31:38.850Z,48.70
2022-11-22T06:32:41.342Z,49.40
2022-11-22T06:33:44.111Z,49.70
2022-11-22T06:34:46.432Z,49.30
2022-11-22T06:35:48.761Z,48.80
2022-11-22T06:36:51.113Z,48.70
2022-11-22T06:37:59.150Z,48.40
2022-11-22T06:39:03.768Z,49.80
2022-11-22T06:40:08.385Z,48.80
2022-11-22T06:41:13.115Z,48.70
2022-11-22T06:42:15.393Z,48.70
2022-11-22T06:43:17.654Z,48.60
2022-11-22T06:44:19.982Z,48.50
2022-11-22T06:45:22.633Z,49.50
2022-11-22T06:46:26.846Z,49.20
2022-11-22T06:47:29.114Z,48.80
2022-11-22T06:48:36.307Z,48.50
2022-11-22T06:49:38.679Z,48.80
2022-11-22T06:50:41.021Z,48.50
2022-11-22T06:51:43.314Z,48.20
2022-11-22T06:52:53.713Z,48.30
2022-11-22T06:53:57.621Z,48.20
2022-11-22T06:55:00.093Z,48.10
2022-11-22T06:56:08.496Z,48.10
2022-11-22T06:57:14.617Z,48.20
2022-11-22T06:58:17.041Z,48.20
2022-11-22T06:59:19.588Z,48.20
2022-11-22T07:00:22.186Z,48.10
2022-11-22T07:01:29.109Z,48.10
2022-11-22T07:02:31.448Z,48.10
2022-11-22T07:03:38.006Z,48.10
2022-11-22T07:04:56.044Z,48.20
2022-11-22T07:06:03.192Z,48.20
2022-11-22T07:07:05.524Z,48.30
2022-11-22T07:08:13.509Z,48.30
2022-11-22T07:09:16.720Z,48.30
2022-11-22T07:10:18.972Z,48.30
2022-11-22T07:11:27.961Z,48.50
2022-11-22T07:12:30.291Z,48.50
2022-11-22T07:13:32.834Z,48.50
2022-11-22T07:14:35.086Z,48.60
2022-11-22T07:15:37.409Z,48.20
2022-11-22T07:16:39.786Z,46.70
2022-11-22T07:17:42.266Z,46.70
2022-11-22T07:18:44.962Z,46.70
2022-11-22T07:19:47.280Z,46.60
2022-11-22T07:20:49.626Z,46.50
2022-11-22T07:21:52.159Z,46.60
2022-11-22T07:22:54.512Z,46.60
2022-11-22T07:23:56.837Z,46.60
2022-11-22T07:24:59.190Z,46.60
2022-11-22T07:26:01.570Z,48.00
2022-11-22T07:27:04.100Z,48.40
2022-11-22T07:28:06.327Z,48.30
2022-11-22T07:29:08.741Z,48.50
2022-11-22T07:30:11.570Z,48.50
2022-11-22T07:31:15.735Z,48.50
2022-11-22T07:32:18.025Z,48.50
2022-11-22T07:33:20.313Z,48.70
2022-11-22T07:34:22.606Z,48.60
2022-11-22T07:35:24.853Z,48.60
2022-11-22T07:36:29.410Z,48.40
2022-11-22T07:37:32.294Z,48.60
2022-11-22T07:38:35.261Z,48.70
2022-11-22T07:39:37.544Z,48.70
2022-11-22T07:40:39.887Z,48.70
2022-11-22T07:41:42.153Z,48.70
2022-11-22T07:42:45.253Z,48.80
2022-11-22T07:43:47.630Z,48.80
2022-11-22T07:44:49.936Z,48.80
2022-11-22T07:45:52.299Z,48.80
2022-11-22T07:46:54.605Z,48.80
2022-11-22T07:47:59.957Z,48.90
2022-11-22T07:49:02.640Z,48.80
2022-11-22T07:50:05.833Z,48.90
2022-11-22T07:51:08.453Z,48.80
2022-11-22T07:52:10.756Z,48.90
2022-11-22T07:53:13.086Z,48.80
2022-11-22T07:54:15.491Z,48.80
2022-11-22T07:55:17.852Z,48.90
2022-11-22T07:56:20.144Z,48.90
2022-11-22T07:57:22.464Z,48.90
2022-11-22T07:58:24.768Z,49.00
2022-11-22T07:59:27.397Z,48.90
2022-11-22T08:00:29.896Z,49.00
2022-11-22T08:01:32.242Z,48.90
2022-11-22T08:02:34.582Z,49.00
2022-11-22T08:03:37.452Z,49.00
2022-11-22T08:04:39.931Z,49.00
2022-11-22T08:05:42.314Z,49.00
2022-11-22T08:06:44.568Z,49.00
2022-11-22T08:07:48.433Z,49.10
2022-11-22T08:08:50.769Z,49.10
2022-11-22T08:09:53.042Z,49.10
2022-11-22T08:10:55.661Z,49.10
2022-11-22T08:11:58.009Z,49.60
2022-11-22T08:13:00.507Z,49.10
2022-11-22T08:14:03.218Z,49.20
2022-11-22T08:15:06.008Z,49.20
2022-11-22T08:16:13.937Z,49.20
2022-11-22T08:17:16.370Z,49.20
2022-11-22T08:18:18.732Z,49.00
2022-11-22T08:19:21.241Z,47.10
2022-11-22T08:20:23.585Z,46.40
2022-11-22T08:21:25.890Z,46.20
2022-11-22T08:22:28.239Z,46.40
2022-11-22T08:23:30.569Z,46.20
2022-11-22T08:24:33.959Z,46.30
2022-11-22T08:25:36.335Z,46.30
2022-11-22T08:26:38.766Z,46.30
2022-11-22T08:27:42.453Z,48.00
2022-11-22T08:28:44.915Z,48.40
2022-11-22T08:29:47.331Z,48.70
2022-11-22T08:30:49.623Z,48.80
2022-11-22T08:31:52.089Z,49.00
2022-11-22T08:32:55.537Z,49.10
2022-11-22T08:33:58.014Z,49.10
2022-11-22T08:35:00.475Z,49.10
2022-11-22T08:36:03.630Z,49.10
2022-11-22T08:37:06.712Z,49.20
2022-11-22T08:38:09.101Z,49.10
2022-11-22T08:39:11.532Z,49.00
2022-11-22T08:40:14.079Z,49.10
2022-11-22T08:41:16.405Z,49.10
2022-11-22T08:42:18.746Z,49.00
2022-11-22T08:43:21.141Z,48.70
2022-11-22T08:44:23.464Z,49.10
2022-11-22T08:45:25.901Z,48.90
2022-11-22T08:46:30.004Z,48.80
2022-11-22T08:47:32.399Z,48.90
2022-11-22T08:48:36.292Z,48.80
2022-11-22T08:49:38.582Z,48.80
2022-11-22T08:50:40.900Z,48.90
2022-11-22T08:51:44.984Z,49.00
2022-11-22T08:52:47.310Z,48.90
2022-11-22T08:53:49.643Z,48.80
2022-11-22T08:54:52.040Z,48.80
2022-11-22T08:55:55.142Z,48.80
2022-11-22T08:56:57.449Z,48.70
2022-11-22T08:58:00.294Z,48.70
2022-11-22T08:59:02.707Z,48.60
2022-11-22T09:00:08.057Z,48.60
2022-11-22T09:01:16.231Z,48.60
2022-11-22T09:02:18.600Z,48.60
2022-11-22T09:03:20.938Z,48.60
2022-11-22T09:04:23.227Z,48.60
2022-11-22T09:05:25.969Z,48.50
2022-11-22T09:09:36.309Z,48.60
2022-11-22T09:10:35.523Z,48.50
2022-11-22T09:11:37.794Z,48.50
2022-11-22T09:12:44.675Z,48.50
2022-11-22T09:13:47.375Z,48.50
2022-11-22T09:14:49.613Z,48.50
2022-11-22T09:15:52.934Z,48.50
2022-11-22T09:16:55.237Z,48.40
2022-11-22T09:18:04.329Z,48.50
2022-11-22T09:19:06.586Z,48.50
2022-11-22T09:20:09.681Z,48.50
2022-11-22T09:21:15.866Z,48.40
2022-11-22T09:22:18.167Z,48.40
2022-11-22T09:23:20.434Z,47.50
2022-11-22T09:24:22.702Z,47.30
2022-11-22T09:25:24.989Z,47.60
2022-11-22T09:26:27.513Z,47.90
2022-11-22T09:27:29.816Z,48.10
2022-11-22T09:28:32.914Z,48.20
2022-11-22T09:29:35.232Z,48.30
2022-11-22T09:30:37.886Z,48.40
2022-11-22T09:31:40.186Z,48.40
2022-11-22T09:32:44.518Z,48.60
2022-11-22T09:33:49.206Z,48.60
2022-11-22T09:34:51.923Z,48.70
2022-11-22T09:36:14.024Z,49.40
2022-11-22T09:37:18.600Z,49.00
2022-11-22T09:38:20.883Z,49.00
2022-11-22T09:39:23.159Z,49.10
2022-11-22T09:40:25.507Z,49.10
2022-11-22T09:41:58.578Z,49.10
2022-11-22T09:43:11.594Z,48.50
2022-11-22T09:44:40.892Z,48.10
2022-11-22T09:45:59.077Z,48.30
2022-11-22T09:47:09.001Z,48.30
2022-11-22T09:48:49.557Z,48.20
2022-11-22T09:50:22.717Z,48.50
2022-11-22T09:51:39.353Z,48.00
2022-11-22T09:52:49.921Z,47.90
2022-11-22T09:54:18.401Z,47.70
2022-11-22T09:55:27.197Z,47.90
2022-11-22T09:56:30.166Z,47.90
2022-11-22T09:57:42.552Z,47.90
2022-11-22T09:58:52.957Z,48.00
2022-11-22T10:00:04.979Z,49.20
2022-11-22T10:01:20.215Z,48.90
2022-11-22T10:02:43.523Z,48.90
2022-11-22T10:03:53.874Z,48.80
2022-11-22T10:05:02.383Z,48.80
2022-11-22T10:06:12.121Z,48.90
2022-11-22T10:07:20.297Z,49.20
2022-11-22T10:08:45.814Z,49.30
2022-11-22T10:10:05.407Z,49.40
2022-11-22T10:11:36.812Z,49.50
2022-11-22T10:12:52.886Z,49.50
2022-11-22T10:14:02.120Z,49.40
2022-11-22T10:15:14.655Z,49.50
2022-11-22T10:16:20.649Z,49.30
2022-11-22T10:17:44.297Z,49.50
2022-11-22T10:19:02.899Z,49.60
2022-11-22T10:20:27.214Z,49.50
2022-11-22T10:21:29.550Z,49.60
2022-11-22T10:22:34.261Z,49.50
2022-11-22T10:23:37.662Z,49.60
2022-11-22T10:24:40.378Z,49.60
2022-11-22T10:25:49.230Z,49.70
2022-11-22T10:26:54.724Z,49.60
2022-11-22T10:28:16.430Z,49.50
2022-11-22T10:29:49.398Z,49.70
2022-11-22T10:31:05.839Z,49.70
2022-11-22T10:32:24.690Z,49.80
2022-11-22T10:33:46.921Z,49.70
2022-11-22T10:35:03.229Z,49.20
2022-11-22T10:36:24.137Z,49.20
2022-11-22T10:37:34.593Z,46.00
2022-11-22T10:38:54.727Z,46.40
2022-11-22T10:40:13.414Z,46.70
2022-11-22T10:41:33.920Z,46.40
2022-11-22T10:43:03.063Z,46.30
2022-11-22T10:44:20.242Z,46.30
2022-11-22T10:45:37.533Z,47.90
2022-11-22T10:46:56.508Z,48.30
2022-11-22T10:48:11.955Z,48.70
2022-11-22T10:49:42.925Z,48.90
2022-11-22T10:51:00.561Z,49.20
2022-11-22T10:52:41.402Z,48.80
2022-11-22T10:53:51.388Z,48.80
2022-11-22T10:55:18.875Z,48.80
2022-11-22T10:56:30.419Z,49.30
2022-11-22T10:57:38.192Z,49.50
2022-11-22T10:58:52.767Z,49.50
2022-11-22T11:00:13.974Z,49.70
2022-11-22T11:01:23.479Z,49.90
2022-11-22T11:02:25.880Z,49.70
2022-11-22T11:03:35.166Z,49.70
2022-11-22T11:04:40.799Z,49.80
2022-11-22T11:06:21.723Z,49.80
2022-11-22T11:07:23.725Z,49.80
2022-11-22T11:09:12.161Z,49.80
2022-11-22T11:10:15.779Z,49.80
2022-11-22T11:11:24.591Z,49.80
2022-11-22T11:12:38.215Z,50.00
2022-11-22T11:13:50.893Z,50.00
2022-11-22T11:14:57.454Z,50.00
2022-11-22T11:16:03.311Z,50.50
2022-11-22T11:17:06.519Z,49.70
2022-11-22T11:18:15.051Z,49.90
2022-11-22T11:19:19.717Z,49.90
2022-11-22T11:20:43.552Z,49.30
2022-11-22T11:21:48.427Z,47.20
2022-11-22T11:24:16.983Z,45.50
2022-11-22T11:25:40.461Z,45.40
2022-11-22T11:26:51.367Z,46.80
2022-11-22T11:27:54.151Z,47.60
2022-11-22T11:29:18.006Z,48.30
2022-11-22T11:30:20.472Z,48.70
2022-11-22T11:31:41.374Z,48.90
2022-11-22T11:32:54.878Z,49.10
2022-11-22T11:34:22.633Z,49.10
2022-11-22T11:35:28.438Z,49.10
2022-11-22T11:36:32.050Z,49.10
2022-11-22T11:37:38.815Z,49.60
2022-11-22T11:38:41.013Z,49.20
2022-11-22T11:39:47.402Z,49.20
2022-11-22T11:40:49.673Z,49.30
2022-11-22T11:41:52.052Z,49.30
2022-11-22T11:43:20.080Z,49.30
2022-11-22T11:44:36.478Z,49.20
2022-11-22T11:45:38.806Z,49.40
2022-11-22T11:46:41.098Z,49.40
2022-11-22T11:47:43.436Z,49.50
2022-11-22T11:48:46.931Z,49.40
2022-11-22T11:49:52.494Z,49.50
2022-11-22T11:51:37.006Z,49.40
2022-11-22T11:52:39.299Z,49.40
2022-11-22T11:53:51.440Z,49.40
2022-11-22T11:54:56.426Z,49.40
2022-11-22T11:56:34.959Z,49.50
2022-11-22T11:57:37.633Z,49.40
2022-11-22T11:58:39.911Z,49.50
2022-11-22T11:59:46.230Z,49.40
2022-11-22T12:00:48.549Z,49.40
2022-11-22T12:02:09.815Z,49.50
2022-11-22T12:03:16.381Z,49.50
2022-11-22T12:04:22.354Z,49.50
2022-11-22T12:05:28.012Z,49.50
2022-11-22T12:06:31.711Z,49.50
2022-11-22T12:07:34.105Z,49.50
2022-11-22T12:08:36.466Z,49.50
2022-11-22T12:09:45.361Z,49.50
2022-11-22T12:10:56.675Z,49.50
2022-11-22T12:12:02.323Z,49.50
2022-11-22T12:13:15.506Z,49.50
2022-11-22T12:14:42.720Z,49.40
2022-11-22T12:15:59.123Z,49.40
2022-11-22T12:17:07.275Z,43.20
2022-11-22T12:18:46.625Z,44.90
2022-11-22T12:20:14.722Z,44.60
2022-11-22T12:21:46.619Z,46.50
2022-11-22T12:22:57.794Z,48.80
2022-11-22T12:24:41.018Z,48.80
2022-11-22T12:25:38.398Z,48.80
2022-11-22T12:26:41.034Z,49.00
2022-11-22T12:27:43.425Z,49.20
2022-11-22T12:28:46.466Z,49.30
2022-11-22T12:29:49.038Z,49.20
2022-11-22T12:32:35.720Z,49.30
2022-11-22T12:33:43.266Z,49.30
2022-11-22T12:35:05.366Z,49.20
2022-11-22T12:36:31.198Z,49.30
2022-11-22T12:37:41.925Z,49.20
2022-11-22T12:38:46.718Z,49.40
2022-11-22T12:39:52.984Z,49.40
2022-11-22T12:41:00.093Z,49.30
2022-11-22T12:42:16.464Z,49.30
2022-11-22T12:43:46.009Z,49.20
2022-11-22T12:44:58.675Z,50.00
2022-11-22T12:46:08.698Z,48.60
2022-11-22T12:47:15.895Z,48.90
2022-11-22T12:48:23.306Z,49.20
2022-11-22T12:48:48.774Z,49.40
2022-11-22T12:50:00.301Z,49.30
2022-11-22T12:51:24.461Z,49.50
2022-11-22T12:52:32.976Z,49.80
2022-11-22T12:53:42.757Z,49.90
2022-11-22T12:55:36.122Z,50.20
2022-11-22T12:56:54.762Z,50.20
2022-11-22T12:58:21.056Z,50.30
2022-11-22T12:59:48.288Z,50.30
2022-11-22T13:01:09.192Z,49.90
2022-11-22T13:02:22.660Z,46.50
2022-11-22T13:03:35.862Z,49.40
2022-11-22T13:05:12.022Z,50.20
2022-11-22T13:06:19.899Z,49.40
2022-11-22T13:07:52.071Z,49.80
2022-11-22T13:09:06.985Z,50.50
2022-11-22T13:10:22.288Z,50.70
2022-11-22T13:11:34.202Z,50.70
2022-11-22T13:12:40.983Z,50.60
2022-11-22T13:13:47.522Z,50.60
2022-11-22T13:14:55.024Z,50.60
2022-11-22T13:16:00.436Z,50.60
2022-11-22T13:17:10.826Z,50.60
2022-11-22T13:18:16.799Z,50.50
2022-11-22T13:19:24.186Z,50.50
2022-11-22T13:20:41.166Z,50.60
2022-11-22T13:22:19.375Z,51.00
2022-11-22T13:23:53.495Z,50.50
2022-11-22T13:25:20.591Z,50.50
2022-11-22T13:26:47.593Z,50.50
2022-11-22T13:27:51.005Z,50.50
2022-11-22T13:28:53.740Z,50.50
2022-11-22T13:30:00.064Z,50.40
2022-11-22T13:31:06.907Z,50.40
2022-11-22T13:32:12.064Z,50.40
2022-11-22T13:33:26.368Z,50.50
2022-11-22T13:34:29.316Z,50.50
2022-11-22T13:35:34.655Z,50.50
2022-11-22T13:36:38.808Z,50.50
2022-11-22T13:37:46.989Z,50.40
2022-11-22T13:38:50.481Z,50.40
2022-11-22T13:39:53.244Z,50.50
2022-11-22T13:40:55.775Z,50.50
2022-11-22T13:41:58.048Z,50.50
2022-11-22T13:43:21.458Z,50.50
2022-11-22T13:44:30.949Z,50.50
2022-11-22T13:45:55.790Z,50.50
2022-11-22T13:47:04.420Z,50.50
2022-11-22T13:48:10.144Z,50.50
2022-11-22T13:49:41.179Z,50.50
2022-11-22T13:50:50.148Z,50.50
2022-11-22T13:51:57.833Z,50.60
2022-11-22T13:53:18.876Z,50.60
2022-11-22T13:54:40.334Z,50.70
2022-11-22T13:55:42.849Z,50.40
2022-11-22T13:56:45.162Z,49.30
2022-11-22T13:57:47.475Z,49.10
2022-11-22T13:59:15.986Z,40.50
2022-11-22T14:00:19.632Z,40.20
2022-11-22T14:01:33.742Z,40.40
2022-11-22T14:02:36.445Z,40.30
2022-11-22T14:03:42.940Z,39.90
2022-11-22T14:04:45.944Z,39.20
2022-11-22T14:05:51.094Z,39.70
2022-11-22T14:06:54.275Z,41.10
2022-11-22T14:07:57.346Z,42.60
2022-11-22T14:09:34.619Z,41.70
2022-11-22T14:10:53.994Z,40.90
2022-11-22T14:12:08.825Z,40.90
2022-11-22T14:13:41.673Z,40.50
2022-11-22T14:14:54.583Z,39.70
2022-11-22T14:16:02.673Z,40.10
2022-11-22T14:17:47.153Z,39.60
2022-11-22T14:19:10.374Z,39.50
2022-11-22T14:20:27.573Z,39.00
2022-11-22T14:21:44.159Z,38.90
2022-11-22T14:23:14.774Z,39.30
2022-11-22T14:24:50.598Z,39.10
2022-11-22T14:25:58.222Z,39.00
2022-11-22T14:27:30.962Z,38.70
2022-11-22T14:28:50.070Z,38.30
2022-11-22T14:30:01.281Z,38.40
2022-11-22T14:31:20.394Z,38.70